Time;durP1;ratioP1;P1;durP2;ratioP2;P2;SDS_P1;SDS_P2;PMS_P1;PMS_P2;Temp;Humidity;BMP_temperature;BMP_pressure;BME280_temperature;BME280_humidity;BME280_pressure;Samples;Min_cycle;Max_cycle;Signal;HPM_P1;HPM_P2
2021/09/10 00:04:24;;;;;;;9.77;8.87;;;21.20;35.50;;;;;;10320095;28;20586;-82
2021/09/10 00:09:28;;;;;;;10.17;9.27;;;21.20;35.80;;;;;;10317643;28;20226;-82
2021/09/10 00:14:32;;;;;;;9.97;9.07;;;21.20;36.40;;;;;;10317418;28;20227;-82
2021/09/10 00:19:35;;;;;;;9.73;8.97;;;21.00;35.90;;;;;;10320492;28;20230;-82
2021/09/10 00:24:40;;;;;;;9.10;8.30;;;20.90;36.10;;;;;;10321468;28;20730;-81
2021/09/10 00:29:44;;;;;;;8.90;8.13;;;20.90;37.00;;;;;;10319392;28;21040;-81
2021/09/10 00:34:47;;;;;;;8.87;8.17;;;20.80;36.40;;;;;;10320939;28;20223;-80
2021/09/10 00:39:52;;;;;;;9.87;9.07;;;20.70;37.20;;;;;;10314203;28;20263;-81
2021/09/10 00:44:55;;;;;;;9.30;8.50;;;20.70;37.10;;;;;;10319410;28;20603;-82
2021/09/10 00:49:59;;;;;;;8.93;7.93;;;20.60;37.00;;;;;;10317640;28;20226;-82
2021/09/10 00:55:05;;;;;;;7.40;6.80;;;20.60;37.00;;;;;;10321955;28;20238;-80
2021/09/10 01:00:10;;;;;;;10.27;8.47;;;20.50;36.90;;;;;;10314061;28;20223;-81
2021/09/10 01:05:13;;;;;;;11.20;8.30;;;20.50;36.90;;;;;;10320173;28;20237;-82
2021/09/10 01:10:18;;;;;;;9.17;8.47;;;20.50;36.90;;;;;;10316911;28;20252;-82
2021/09/10 01:15:22;;;;;;;9.47;8.60;;;20.50;37.20;;;;;;10315467;28;20717;-82
2021/09/10 01:20:25;;;;;;;8.70;8.00;;;20.50;36.90;;;;;;10313874;28;20325;-82
2021/09/10 01:25:30;;;;;;;8.17;7.50;;;20.50;36.90;;;;;;10319109;28;20223;-84
2021/09/10 01:30:35;;;;;;;8.43;7.73;;;20.40;37.20;;;;;;10315185;28;20349;-82
2021/09/10 01:35:40;;;;;;;8.70;7.93;;;20.40;37.10;;;;;;10312039;28;20230;-81
2021/09/10 01:40:45;;;;;;;9.37;8.57;;;20.50;37.00;;;;;;10319583;28;20705;-82
2021/09/10 01:45:48;;;;;;;7.87;7.17;;;20.40;37.80;;;;;;10306706;28;20223;-82
2021/09/10 01:50:52;;;;;;;8.70;8.00;;;20.40;36.90;;;;;;10312563;28;20432;-81
2021/09/10 01:55:57;;;;;;;7.67;7.07;;;20.50;37.00;;;;;;10304287;28;20218;-82
2021/09/10 02:01:01;;;;;;;8.10;7.40;;;20.50;37.50;;;;;;10306613;28;20235;-82
2021/09/10 02:06:05;;;;;;;8.30;7.50;;;20.40;37.60;;;;;;10320244;28;20227;-81
2021/09/10 02:11:10;;;;;;;9.00;8.20;;;20.50;36.90;;;;;;10315213;28;20234;-82
2021/09/10 02:16:13;;;;;;;8.70;7.90;;;20.40;36.90;;;;;;10314387;28;20302;-82
2021/09/10 02:21:17;;;;;;;8.73;8.00;;;20.40;36.90;;;;;;10313057;28;20234;-82
2021/09/10 02:26:21;;;;;;;8.83;8.03;;;20.30;36.80;;;;;;10313500;28;20458;-82
2021/09/10 02:31:25;;;;;;;8.83;8.03;;;20.30;37.20;;;;;;10307389;28;20318;-81
2021/09/10 02:36:28;;;;;;;9.00;8.27;;;20.30;36.80;;;;;;10316288;28;20641;-80
2021/09/10 02:41:33;;;;;;;8.13;7.53;;;20.20;36.80;;;;;;10303895;28;20228;-80
2021/09/10 02:46:37;;;;;;;8.80;7.90;;;20.20;37.30;;;;;;10312576;28;20238;-80
2021/09/10 02:51:41;;;;;;;8.43;7.73;;;20.10;37.10;;;;;;10311417;28;20804;-80
2021/09/10 02:56:45;;;;;;;8.43;7.73;;;20.10;36.90;;;;;;10325379;28;20639;-80
2021/09/10 03:01:48;;;;;;;7.53;6.83;;;20.00;37.40;;;;;;10323544;28;20230;-81
2021/09/10 03:06:52;;;;;;;8.83;7.93;;;20.00;36.90;;;;;;10316205;28;20716;-80
2021/09/10 03:11:57;;;;;;;9.03;8.33;;;19.90;37.30;;;;;;10318769;28;20701;-80
2021/09/10 03:17:00;;;;;;;8.50;7.80;;;19.90;37.80;;;;;;10312132;28;20235;-80
2021/09/10 03:22:04;;;;;;;8.47;7.87;;;19.90;37.50;;;;;;10319125;28;20239;-80
2021/09/10 03:27:08;;;;;;;9.40;8.57;;;19.90;37.60;;;;;;10318968;28;20227;-80
2021/09/10 03:32:11;;;;;;;8.10;7.40;;;19.90;38.00;;;;;;10323354;28;20247;-80
2021/09/10 03:37:15;;;;;;;7.93;7.30;;;19.80;37.50;;;;;;10320716;28;20231;-80
2021/09/10 03:42:20;;;;;;;8.80;8.10;;;19.70;37.50;;;;;;10323106;28;20245;-80
2021/09/10 03:47:24;;;;;;;7.80;7.17;;;19.70;38.00;;;;;;10316468;28;20223;-80
2021/09/10 03:52:27;;;;;;;8.90;8.20;;;19.70;37.90;;;;;;10318168;28;20310;-80
2021/09/10 03:57:32;;;;;;;8.73;7.83;;;19.70;37.90;;;;;;10316183;28;20910;-80
2021/09/10 04:02:35;;;;;;;9.83;8.93;;;19.60;38.10;;;;;;10321135;28;20234;-80
2021/09/10 04:07:39;;;;;;;8.83;8.10;;;19.60;37.90;;;;;;10324081;28;20253;-80
2021/09/10 04:12:43;;;;;;;8.70;7.97;;;19.50;37.70;;;;;;10321708;28;20249;-82
2021/09/10 04:17:46;;;;;;;9.10;7.40;;;19.40;38.10;;;;;;10318326;28;20230;-80
2021/09/10 04:22:50;;;;;;;8.40;7.60;;;19.40;38.10;;;;;;10314452;28;20227;-80
2021/09/10 04:27:55;;;;;;;7.97;7.27;;;19.40;38.10;;;;;;10315721;28;20219;-80
2021/09/10 04:32:58;;;;;;;10.10;9.27;;;19.40;38.50;;;;;;10315372;28;20227;-80
2021/09/10 04:38:01;;;;;;;9.07;8.23;;;19.30;38.20;;;;;;10315547;28;20223;-80
2021/09/10 04:43:06;;;;;;;8.07;7.47;;;19.30;38.10;;;;;;10312415;28;20234;-76
2021/09/10 04:48:09;;;;;;;6.93;6.43;;;19.20;38.40;;;;;;10303784;28;20224;-82
2021/09/10 04:53:12;;;;;;;8.87;8.17;;;19.20;38.10;;;;;;10316706;28;20245;-80
2021/09/10 04:58:17;;;;;;;8.87;8.07;;;19.20;38.20;;;;;;10313047;28;20638;-80
2021/09/10 05:03:20;;;;;;;8.43;7.73;;;19.20;38.70;;;;;;10312973;28;20223;-76
2021/09/10 05:08:24;;;;;;;9.37;8.47;;;19.10;38.10;;;;;;10308239;28;20250;-82
2021/09/10 05:13:28;;;;;;;9.43;8.63;;;19.10;38.30;;;;;;10311203;28;20258;-84
2021/09/10 05:18:33;;;;;;;9.50;8.70;;;19.10;38.80;;;;;;10310556;28;20322;-78
2021/09/10 05:23:36;;;;;;;7.97;7.17;;;19.00;38.70;;;;;;10310366;28;20579;-76
2021/09/10 05:28:41;;;;;;;8.37;7.67;;;19.00;38.90;;;;;;10306786;28;20230;-74
2021/09/10 05:33:44;;;;;;;9.97;9.17;;;19.00;39.50;;;;;;10307586;28;21655;-84
2021/09/10 05:38:48;;;;;;;9.60;8.80;;;19.00;39.20;;;;;;10306977;28;20607;-79
2021/09/10 05:43:52;;;;;;;11.83;10.73;;;19.00;39.90;;;;;;10309265;28;20230;-72
2021/09/10 05:48:55;;;;;;;13.07;11.90;;;18.90;39.70;;;;;;10308584;28;20580;-83
2021/09/10 05:53:59;;;;;;;11.23;10.33;;;18.90;39.40;;;;;;10309148;28;20259;-78
2021/09/10 05:59:03;;;;;;;11.07;10.10;;;18.80;39.70;;;;;;10309152;28;20634;-79
2021/09/10 06:04:07;;;;;;;12.63;11.43;;;18.80;40.90;;;;;;10314479;28;20223;-80
2021/09/10 06:09:11;;;;;;;12.33;11.10;;;18.80;40.60;;;;;;10316491;28;20765;-81
2021/09/10 06:14:15;;;;;;;11.77;10.77;;;18.90;40.90;;;;;;10304352;28;20618;-74
2021/09/10 06:19:19;;;;;;;12.00;11.00;;;18.90;41.30;;;;;;10303382;28;20227;-72
2021/09/10 06:24:22;;;;;;;13.03;11.63;;;19.00;41.10;;;;;;10343684;23;20250;-75
2021/09/10 06:29:27;;;;;;;13.57;12.37;;;19.10;41.20;;;;;;10340220;28;20234;-76
2021/09/10 06:34:30;;;;;;;13.00;11.90;;;19.20;42.60;;;;;;10326393;28;20733;-80
2021/09/10 06:39:34;;;;;;;13.60;12.40;;;19.30;41.50;;;;;;10318154;28;20231;-79
2021/09/10 06:44:39;;;;;;;12.97;11.63;;;19.40;41.60;;;;;;10317972;28;20611;-79
2021/09/10 06:49:42;;;;;;;11.70;10.70;;;19.50;42.20;;;;;;10316277;28;20231;-79
2021/09/10 06:54:45;;;;;;;11.60;10.60;;;19.60;41.70;;;;;;10319965;28;20254;-79
2021/09/10 06:59:50;;;;;;;12.93;11.73;;;19.60;41.80;;;;;;10313604;28;20733;-79
2021/09/10 07:04:53;;;;;;;13.20;11.90;;;19.80;42.50;;;;;;10306013;28;20238;-79
2021/09/10 07:09:57;;;;;;;13.27;12.17;;;19.90;42.20;;;;;;10316811;28;20261;-79
2021/09/10 07:15:02;;;;;;;13.43;12.20;;;20.10;42.40;;;;;;10317908;28;20249;-79
2021/09/10 07:20:07;;;;;;;13.27;12.07;;;20.20;42.90;;;;;;10317360;28;20675;-76
2021/09/10 07:25:10;;;;;;;12.67;11.47;;;20.30;42.70;;;;;;10305271;28;20247;-80
2021/09/10 07:30:15;;;;;;;13.67;12.47;;;20.50;42.70;;;;;;10314637;28;20238;-80
2021/09/10 07:35:18;;;;;;;13.13;12.03;;;20.60;43.20;;;;;;10308863;28;20225;-80
2021/09/10 07:40:21;;;;;;;14.10;12.80;;;20.80;42.80;;;;;;10314287;28;21205;-77
2021/09/10 07:45:30;;;;;;;13.30;12.20;;;21.00;42.60;;;;;;10312960;28;21963;-72
2021/09/10 07:50:33;;;;;;;13.30;12.10;;;21.20;42.90;;;;;;10309811;28;20289;-72
2021/09/10 07:55:37;;;;;;;12.80;11.80;;;21.50;42.60;;;;;;10310746;28;20305;-72
2021/09/10 08:00:42;;;;;;;13.83;11.90;;;21.70;42.40;;;;;;10309556;28;20844;-78
2021/09/10 08:05:46;;;;;;;12.53;11.33;;;21.90;42.80;;;;;;10309931;28;20317;-78
2021/09/10 08:10:49;;;;;;;11.63;10.63;;;22.10;42.30;;;;;;10311003;28;20227;-72
2021/09/10 08:15:54;;;;;;;12.33;11.27;;;22.40;42.40;;;;;;10308046;28;20238;-72
2021/09/10 08:20:57;;;;;;;11.33;10.33;;;22.60;42.70;;;;;;10308580;28;20226;-72
2021/09/10 08:26:00;;;;;;;11.97;11.00;;;22.80;42.20;;;;;;10303725;28;20235;-72
2021/09/10 08:31:05;;;;;;;12.57;11.50;;;23.10;41.90;;;;;;10306849;28;20238;-72
2021/09/10 08:36:08;;;;;;;12.13;11.13;;;23.30;42.00;;;;;;10302333;28;20236;-72
2021/09/10 08:41:14;;;;;;;11.40;10.57;;;23.60;41.70;;;;;;10306206;28;20234;-72
2021/09/10 08:46:19;;;;;;;12.90;11.80;;;23.80;41.60;;;;;;10308622;28;20227;-72
2021/09/10 08:51:22;;;;;;;11.60;10.70;;;24.10;40.70;;;;;;10309592;28;20239;-71
2021/09/10 08:56:26;;;;;;;10.13;9.33;;;24.30;40.80;;;;;;10293139;28;20745;-72
2021/09/10 09:01:31;;;;;;;10.20;9.33;;;24.60;40.60;;;;;;10301457;28;20231;-73
2021/09/10 09:06:35;;;;;;;10.60;9.57;;;24.80;40.70;;;;;;10296844;28;20817;-72
2021/09/10 09:11:39;;;;;;;10.10;9.30;;;25.00;40.20;;;;;;10299132;28;20231;-73
2021/09/10 09:16:43;;;;;;;10.03;9.13;;;25.30;39.70;;;;;;10303766;28;20227;-72
2021/09/10 09:21:46;;;;;;;9.17;8.47;;;25.50;38.80;;;;;;10305560;28;20237;-72
2021/09/10 09:26:51;;;;;;;8.90;8.10;;;25.70;38.90;;;;;;10308216;28;20238;-72
2021/09/10 09:31:58;;;;;;;9.40;8.50;;;25.90;38.20;;;;;;10307086;28;20238;-73
2021/09/10 09:37:07;;;;;;;8.97;8.20;;;26.10;37.90;;;;;;10308675;28;20223;-73
2021/09/10 09:42:11;;;;;;;9.40;8.50;;;26.30;36.70;;;;;;10305363;28;20245;-73
2021/09/10 09:47:22;;;;;;;8.13;7.43;;;26.50;37.40;;;;;;10303995;28;20242;-73
2021/09/10 09:52:26;;;;;;;8.10;7.40;;;26.70;36.20;;;;;;10296687;28;20328;-73
2021/09/10 09:57:30;;;;;;;7.27;6.67;;;26.80;36.30;;;;;;10303605;28;20227;-73
2021/09/10 10:02:35;;;;;;;7.60;7.00;;;27.00;36.00;;;;;;10307460;28;20628;-72
2021/09/10 10:07:56;;;;;;;7.10;6.20;;;27.20;34.70;;;;;;10312005;28;20849;-73
2021/09/10 10:13:01;;;;;;;7.03;6.47;;;27.30;33.60;;;;;;10313110;28;20704;-72
2021/09/10 10:18:09;;;;;;;6.67;6.17;;;27.50;34.30;;;;;;10313376;28;20222;-73
2021/09/10 10:23:45;;;;;;;6.23;5.63;;;27.60;33.30;;;;;;10314332;28;20250;-73
2021/09/10 10:28:50;;;;;;;6.63;6.10;;;27.80;32.90;;;;;;10316367;28;20242;-72
2021/09/10 10:34:05;;;;;;;5.70;5.30;;;27.90;33.00;;;;;;10314665;28;20825;-72
2021/09/10 10:39:26;;;;;;;7.00;6.40;;;28.00;32.30;;;;;;10311343;28;20230;-73
2021/09/10 10:44:49;;;;;;;6.97;6.37;;;28.20;32.20;;;;;;10314983;28;20233;-72
2021/09/10 10:49:53;;;;;;;6.63;6.13;;;28.30;32.50;;;;;;10316160;28;20227;-72
2021/09/10 10:55:15;;;;;;;7.73;7.13;;;28.50;32.20;;;;;;10313216;28;20771;-73
2021/09/10 11:00:55;;;;;;;7.97;7.23;;;28.60;31.70;;;;;;10311755;28;20229;-72
2021/09/10 11:06:30;;;;;;;6.80;6.20;;;28.70;31.00;;;;;;10310631;28;20226;-72
2021/09/10 11:11:33;;;;;;;7.23;6.63;;;28.80;30.70;;;;;;10310573;28;20678;-72
2021/09/10 11:16:36;;;;;;;7.20;6.63;;;28.80;30.70;;;;;;10305288;28;20709;-72
2021/09/10 11:21:41;;;;;;;7.73;7.13;;;28.90;30.80;;;;;;10304489;28;20226;-72
2021/09/10 11:26:44;;;;;;;7.20;6.70;;;28.90;30.10;;;;;;10307477;28;20463;-72
2021/09/10 11:31:47;;;;;;;7.67;7.10;;;28.90;30.80;;;;;;10312384;28;20620;-72
2021/09/10 11:36:52;;;;;;;6.80;6.20;;;29.00;30.80;;;;;;10310753;28;20722;-73
2021/09/10 11:41:55;;;;;;;7.47;6.97;;;29.00;29.90;;;;;;10311865;28;20232;-73
2021/09/10 11:46:58;;;;;;;7.60;6.73;;;29.10;30.20;;;;;;10311251;28;20219;-73
2021/09/10 11:52:03;;;;;;;7.50;6.80;;;29.10;30.00;;;;;;10311681;28;20227;-74
2021/09/10 11:57:18;;;;;;;7.80;7.10;;;29.10;29.50;;;;;;10311608;28;20258;-73
2021/09/10 12:02:22;;;;;;;7.67;7.07;;;29.10;29.40;;;;;;10305431;28;20243;-73
2021/09/10 12:07:31;;;;;;;7.43;6.80;;;29.20;29.80;;;;;;10309703;28;20229;-72
2021/09/10 12:12:35;;;;;;;7.37;6.63;;;29.20;29.00;;;;;;10308990;28;20239;-73
2021/09/10 12:17:38;;;;;;;7.57;6.87;;;29.20;29.50;;;;;;10309741;28;20244;-73
2021/09/10 12:23:01;;;;;;;7.60;6.93;;;29.20;29.20;;;;;;10305570;28;20227;-73
2021/09/10 12:28:22;;;;;;;7.40;6.80;;;29.30;28.90;;;;;;10310880;28;20231;-73
2021/09/10 12:33:27;;;;;;;8.30;7.50;;;29.20;28.50;;;;;;10307294;28;20230;-74
2021/09/10 12:38:34;;;;;;;8.03;7.33;;;29.30;28.80;;;;;;10308448;28;20602;-71
2021/09/10 12:43:39;;;;;;;7.87;7.20;;;29.30;28.30;;;;;;10309726;28;20233;-71
2021/09/10 12:48:42;;;;;;;7.33;6.83;;;29.30;28.60;;;;;;10310193;28;20669;-71
2021/09/10 12:53:47;;;;;;;7.73;7.03;;;29.30;28.80;;;;;;10305981;28;20230;-71
2021/09/10 12:58:50;;;;;;;7.30;6.80;;;29.30;28.20;;;;;;10308011;28;20223;-71
2021/09/10 13:03:53;;;;;;;6.90;6.40;;;29.40;28.50;;;;;;10307429;28;20237;-71
2021/09/10 13:08:58;;;;;;;7.37;6.83;;;29.40;28.40;;;;;;10307297;28;20218;-71
2021/09/10 13:14:01;;;;;;;7.73;7.10;;;29.40;27.90;;;;;;10309028;28;20247;-70
2021/09/10 13:19:04;;;;;;;7.70;7.00;;;29.40;28.30;;;;;;10305294;28;20230;-72
2021/09/10 13:24:09;;;;;;;7.83;7.13;;;29.50;28.10;;;;;;10312886;28;20254;-73
2021/09/10 13:29:12;;;;;;;8.03;7.33;;;29.50;27.60;;;;;;10308711;28;20786;-73
2021/09/10 13:34:15;;;;;;;7.70;7.10;;;29.50;27.90;;;;;;10307634;28;20230;-73
2021/09/10 13:39:20;;;;;;;7.03;6.53;;;29.60;27.90;;;;;;10308298;28;20716;-73
2021/09/10 13:44:23;;;;;;;7.77;6.97;;;29.50;27.60;;;;;;10311020;28;20242;-79
2021/09/10 13:49:26;;;;;;;7.43;6.83;;;29.50;28.50;;;;;;10310540;28;20222;-76
2021/09/10 13:54:32;;;;;;;7.07;6.57;;;29.50;28.10;;;;;;10310426;28;20309;-76
2021/09/10 13:59:39;;;;;;;7.77;7.07;;;29.50;27.70;;;;;;10306115;28;20238;-83
2021/09/10 14:04:42;;;;;;;8.10;7.20;;;29.50;27.90;;;;;;10311122;28;21854;-80
2021/09/10 14:09:47;;;;;;;7.70;7.10;;;29.50;27.80;;;;;;10310402;28;20787;-79
2021/09/10 14:14:51;;;;;;;7.27;6.77;;;29.40;27.70;;;;;;10308773;28;20239;-73
2021/09/10 14:19:54;;;;;;;7.70;7.07;;;29.40;28.20;;;;;;10301634;28;21075;-73
2021/09/10 14:24:59;;;;;;;7.60;7.00;;;29.40;28.30;;;;;;10299407;28;20247;-80
2021/09/10 14:30:02;;;;;;;7.30;6.80;;;29.40;27.90;;;;;;10310777;28;20227;-79
2021/09/10 14:35:07;;;;;;;7.90;7.30;;;29.40;27.70;;;;;;10305127;28;20237;-80
2021/09/10 14:40:13;;;;;;;7.73;7.13;;;29.40;27.70;;;;;;10306822;28;20607;-80
2021/09/10 14:45:16;;;;;;;7.53;6.93;;;29.40;27.30;;;;;;10309699;28;20314;-74
2021/09/10 14:50:19;;;;;;;8.80;8.07;;;29.40;27.50;;;;;;10305043;28;20307;-80
2021/09/10 14:55:25;;;;;;;8.17;7.57;;;29.40;28.00;;;;;;10313301;28;20714;-81
2021/09/10 15:00:29;;;;;;;7.83;7.23;;;29.40;27.60;;;;;;10310212;28;20233;-73
2021/09/10 15:05:32;;;;;;;8.73;7.90;;;29.50;28.00;;;;;;10312555;28;20242;-73
2021/09/10 15:10:38;;;;;;;8.80;8.10;;;29.40;28.00;;;;;;10313969;28;20602;-73
2021/09/10 15:15:42;;;;;;;8.67;8.07;;;29.50;28.40;;;;;;10312459;28;20224;-80
2021/09/10 15:20:45;;;;;;;8.43;7.60;;;29.50;28.40;;;;;;10321358;28;20260;-80
2021/09/10 15:25:49;;;;;;;8.80;8.07;;;29.40;28.60;;;;;;10318610;28;20227;-80
2021/09/10 15:30:53;;;;;;;10.23;9.40;;;29.40;28.80;;;;;;10316162;28;20227;-80
2021/09/10 15:35:56;;;;;;;10.30;9.27;;;29.30;28.70;;;;;;10323062;28;20223;-80
2021/09/10 15:41:01;;;;;;;10.83;9.90;;;29.30;28.80;;;;;;10310364;28;20227;-79
2021/09/10 15:46:04;;;;;;;9.67;8.90;;;29.30;28.90;;;;;;10313043;28;20242;-74
2021/09/10 15:51:09;;;;;;;10.00;9.20;;;29.30;29.00;;;;;;10311414;28;20234;-79
2021/09/10 15:56:17;;;;;;;10.60;9.70;;;29.30;29.20;;;;;;10313121;28;20231;-79
2021/09/10 16:01:20;;;;;;;10.27;9.47;;;29.30;29.20;;;;;;10311308;28;21209;-79
2021/09/10 16:06:24;;;;;;;10.20;9.30;;;29.30;29.30;;;;;;10314975;28;20219;-79
2021/09/10 16:11:28;;;;;;;10.73;9.80;;;29.30;29.50;;;;;;10314952;28;20756;-73
2021/09/10 16:16:32;;;;;;;10.73;9.87;;;29.30;29.70;;;;;;10304535;28;20223;-80
2021/09/10 16:21:35;;;;;;;11.43;10.43;;;29.30;29.70;;;;;;10310023;28;20621;-74
2021/09/10 16:26:39;;;;;;;12.07;10.90;;;29.30;29.60;;;;;;10311008;28;20231;-74
2021/09/10 16:31:43;;;;;;;8.40;7.80;;;29.20;29.30;;;;;;10309186;28;20246;-74
2021/09/10 16:36:46;;;;;;;7.13;6.63;;;29.20;28.50;;;;;;10312198;28;20278;-80
2021/09/10 16:41:51;;;;;;;7.20;6.67;;;29.10;28.20;;;;;;10313357;28;20235;-80
2021/09/10 16:46:54;;;;;;;7.87;6.67;;;29.00;28.20;;;;;;10313278;28;20234;-80
2021/09/10 16:51:57;;;;;;;7.23;6.73;;;28.80;28.90;;;;;;10319656;28;20223;-80
2021/09/10 16:57:03;;;;;;;7.40;6.80;;;28.80;29.10;;;;;;10316205;28;20235;-80
2021/09/10 17:02:10;;;;;;;7.57;6.80;;;28.70;29.50;;;;;;10310368;28;20730;-80
2021/09/10 17:07:17;;;;;;;7.07;6.47;;;28.70;29.50;;;;;;10310789;28;20226;-80
2021/09/10 17:12:22;;;;;;;6.97;6.37;;;28.60;29.70;;;;;;10308591;28;20343;-80
2021/09/10 17:17:25;;;;;;;7.33;6.83;;;28.50;29.90;;;;;;10311100;28;20251;-80
2021/09/10 17:22:28;;;;;;;6.97;6.37;;;28.50;30.10;;;;;;10312144;28;20242;-80
2021/09/10 17:27:33;;;;;;;7.17;6.57;;;28.50;30.20;;;;;;10317216;28;20231;-81
2021/09/10 17:32:36;;;;;;;7.10;6.50;;;28.40;30.50;;;;;;10305956;28;20233;-81
2021/09/10 17:37:41;;;;;;;7.10;6.60;;;28.30;30.40;;;;;;10314740;28;20242;-80
2021/09/10 17:42:45;;;;;;;7.70;7.20;;;28.20;30.30;;;;;;10305971;28;20251;-81
2021/09/10 17:47:50;;;;;;;7.63;7.03;;;28.10;30.30;;;;;;10308528;28;20226;-81
2021/09/10 17:52:54;;;;;;;8.80;8.10;;;28.00;30.20;;;;;;10307828;28;20227;-81
2021/09/10 17:57:58;;;;;;;9.70;8.90;;;27.80;30.10;;;;;;10315463;28;20224;-81
2021/09/10 18:03:01;;;;;;;9.50;8.50;;;27.70;30.00;;;;;;10307977;28;20242;-74
2021/09/10 18:08:06;;;;;;;8.73;8.03;;;27.40;29.90;;;;;;10305844;28;20232;-74
2021/09/10 18:13:10;;;;;;;8.30;7.60;;;27.20;30.10;;;;;;10304762;28;20234;-73
2021/09/10 18:18:13;;;;;;;8.93;8.20;;;27.00;30.70;;;;;;10307704;28;20231;-74
2021/09/10 18:23:17;;;;;;;8.33;7.63;;;26.90;30.40;;;;;;10302439;28;20249;-73
2021/09/10 18:28:21;;;;;;;9.30;8.47;;;26.70;30.50;;;;;;10313723;28;20578;-74
2021/09/10 18:33:24;;;;;;;9.33;8.53;;;26.40;31.20;;;;;;10310761;28;20234;-74
2021/09/10 18:38:27;;;;;;;9.17;8.27;;;26.20;31.30;;;;;;10305855;28;20227;-74
2021/09/10 18:43:34;;;;;;;8.93;8.23;;;25.90;31.70;;;;;;10314001;28;20239;-81
2021/09/10 18:48:38;;;;;;;8.40;7.73;;;25.60;32.60;;;;;;10314099;28;20226;-81
2021/09/10 18:53:41;;;;;;;8.67;8.07;;;25.50;32.40;;;;;;10317972;28;20231;-82
2021/09/10 18:58:46;;;;;;;9.87;8.77;;;25.40;32.60;;;;;;10313881;28;20568;-74
2021/09/10 19:03:49;;;;;;;9.57;8.67;;;25.40;33.20;;;;;;10314840;28;20788;-74
2021/09/10 19:08:52;;;;;;;9.73;8.87;;;25.30;32.90;;;;;;10317228;28;20234;-78
2021/09/10 19:13:57;;;;;;;9.43;8.73;;;25.30;33.10;;;;;;10319250;28;20241;-80
2021/09/10 19:19:00;;;;;;;9.83;9.03;;;25.20;33.50;;;;;;10316392;28;20227;-80
2021/09/10 19:24:04;;;;;;;10.10;9.13;;;25.10;33.30;;;;;;10311637;28;20231;-79
2021/09/10 19:29:09;;;;;;;10.27;9.37;;;25.10;33.60;;;;;;10319094;28;20294;-80
2021/09/10 19:34:12;;;;;;;11.47;10.53;;;24.90;34.10;;;;;;10316792;28;20322;-80
2021/09/10 19:39:16;;;;;;;10.97;10.07;;;24.90;33.90;;;;;;10322853;28;20621;-80
2021/09/10 19:44:20;;;;;;;11.93;10.93;;;24.80;34.10;;;;;;10319088;28;20227;-80
2021/09/10 19:49:26;;;;;;;12.60;11.40;;;24.80;34.60;;;;;;10317356;28;20309;-79
2021/09/10 19:54:30;;;;;;;12.43;11.43;;;24.70;34.70;;;;;;10316561;28;20262;-80
2021/09/10 19:59:48;;;;;;;11.93;11.00;;;24.70;34.40;;;;;;10296784;28;20231;-80
2021/09/10 20:04:52;;;;;;;11.33;10.43;;;24.50;34.50;;;;;;10308462;28;20265;-79
2021/09/10 20:09:56;;;;;;;9.43;8.53;;;24.50;34.30;;;;;;10315659;28;20215;-79
2021/09/10 20:15:00;;;;;;;8.00;7.40;;;24.40;34.10;;;;;;10315659;28;20302;-79
2021/09/10 20:20:06;;;;;;;7.43;6.83;;;24.30;34.00;;;;;;10310160;28;20230;-79
2021/09/10 20:25:11;;;;;;;6.63;6.17;;;24.30;34.00;;;;;;10313843;28;20254;-81
2021/09/10 20:30:15;;;;;;;7.13;6.53;;;24.30;33.90;;;;;;10311863;28;20219;-80
2021/09/10 20:35:18;;;;;;;6.70;6.10;;;24.30;34.00;;;;;;10313845;28;20235;-82
2021/09/10 20:40:22;;;;;;;6.80;6.20;;;24.30;33.90;;;;;;10310507;28;20258;-81
2021/09/10 20:45:28;;;;;;;6.90;6.40;;;24.30;34.00;;;;;;10321705;28;20743;-81
2021/09/10 20:50:32;;;;;;;7.53;6.93;;;24.30;34.10;;;;;;10316838;28;20230;-81
2021/09/10 20:55:36;;;;;;;22.57;20.47;;;24.20;33.90;;;;;;10317717;28;20316;-81
2021/09/10 21:00:41;;;;;;;12.33;11.23;;;24.10;34.10;;;;;;10313339;28;20223;-81
2021/09/10 21:05:45;;;;;;;10.33;9.37;;;24.10;34.60;;;;;;10317813;28;20227;-80
2021/09/10 21:10:48;;;;;;;9.40;8.70;;;23.90;34.30;;;;;;10314699;28;21129;-81
2021/09/10 21:15:55;;;;;;;10.10;9.20;;;23.90;35.00;;;;;;10307904;28;20222;-74
2021/09/10 21:20:58;;;;;;;9.87;9.00;;;23.80;35.00;;;;;;10300765;28;20230;-74
2021/09/10 21:26:01;;;;;;;10.50;9.60;;;23.60;34.50;;;;;;10299194;28;20792;-81
2021/09/10 21:31:06;;;;;;;9.80;8.80;;;23.50;34.80;;;;;;10307831;28;20294;-81
2021/09/10 21:36:14;;;;;;;9.70;8.70;;;23.50;35.40;;;;;;10308138;28;20771;-74
2021/09/10 21:41:17;;;;;;;10.03;9.30;;;23.50;35.20;;;;;;10301988;28;20231;-74
2021/09/10 21:46:23;;;;;;;8.90;8.20;;;23.40;35.30;;;;;;10310087;28;20238;-74
2021/09/10 21:51:26;;;;;;;9.63;8.73;;;23.40;35.60;;;;;;10309567;28;20274;-74
2021/09/10 21:56:30;;;;;;;9.47;8.77;;;23.30;35.10;;;;;;10310864;28;20744;-74
2021/09/10 22:01:35;;;;;;;10.57;9.67;;;23.30;35.30;;;;;;10316488;28;20234;-74
2021/09/10 22:06:39;;;;;;;10.23;9.43;;;23.20;35.90;;;;;;10318126;28;20314;-74
2021/09/10 22:11:43;;;;;;;9.90;9.10;;;23.10;35.50;;;;;;10322436;28;20601;-74
2021/09/10 22:16:47;;;;;;;8.97;8.27;;;23.00;35.60;;;;;;10313737;28;20705;-74
2021/09/10 22:21:51;;;;;;;9.57;8.67;;;22.90;36.10;;;;;;10321058;28;20269;-74
2021/09/10 22:26:54;;;;;;;9.53;8.73;;;22.90;35.90;;;;;;10320462;28;20235;-74
2021/09/10 22:31:59;;;;;;;10.20;9.20;;;22.90;35.90;;;;;;10317277;28;20239;-73
2021/09/10 22:37:03;;;;;;;10.47;9.57;;;22.80;36.30;;;;;;10314833;28;20649;-74
2021/09/10 22:42:06;;;;;;;9.43;8.70;;;22.70;36.00;;;;;;10318562;28;20695;-74
2021/09/10 22:47:11;;;;;;;10.20;9.27;;;22.70;36.10;;;;;;10315666;28;20223;-74
2021/09/10 22:52:14;;;;;;;12.13;11.00;;;22.60;36.90;;;;;;10314036;28;20243;-74
2021/09/10 22:57:18;;;;;;;10.63;9.63;;;22.50;36.50;;;;;;10318018;28;20237;-74
2021/09/10 23:02:22;;;;;;;10.67;9.77;;;22.40;36.50;;;;;;10312683;28;20227;-74
2021/09/10 23:07:26;;;;;;;10.57;9.63;;;22.40;37.10;;;;;;10313855;28;20841;-74
2021/09/10 23:12:29;;;;;;;10.67;9.70;;;22.40;36.80;;;;;;10312515;28;20709;-73
2021/09/10 23:23:18;;;;;;;10.80;10.00;;;22.30;37.50;;;;;;10311595;28;20238;-74
2021/09/10 23:28:21;;;;;;;10.83;9.93;;;22.30;37.10;;;;;;10314031;28;20234;-73
2021/09/10 23:33:26;;;;;;;11.07;10.10;;;22.30;37.30;;;;;;10313880;28;20764;-81
2021/09/10 23:38:29;;;;;;;10.83;9.83;;;22.20;37.90;;;;;;10323124;28;20238;-80
2021/09/10 23:43:32;;;;;;;10.70;9.87;;;22.10;37.50;;;;;;10326744;28;20231;-81
2021/09/10 23:48:37;;;;;;;10.60;9.70;;;21.90;37.70;;;;;;10322627;28;20234;-81
2021/09/10 23:53:41;;;;;;;10.10;9.30;;;21.90;38.20;;;;;;10319519;28;20227;-81
2021/09/10 23:58:45;;;;;;;10.37;9.57;;;21.80;38.10;;;;;;10317900;28;20231;-81
